Time;durP1;ratioP1;P1;durP2;ratioP2;P2;SDS_P1;SDS_P2;PMS_P1;PMS_P2;Temp;Humidity;BMP_temperature;BMP_pressure;BME280_temperature;BME280_humidity;BME280_pressure;Samples;Min_cycle;Max_cycle;Signal;HPM_P1;HPM_P2
2021/10/12 00:00:30;;;;;;;125.40;71.28;;;;;;;7.01;100.00;99145.09;2108330;28;20257;-77
2021/10/12 00:01:33;;;;;;;133.18;73.60;;;;;;;6.97;100.00;99145.94;2116204;28;20238;-76
2021/10/12 00:02:35;;;;;;;123.22;72.00;;;;;;;6.92;100.00;99152.03;2116458;28;20227;-76
2021/10/12 00:03:40;;;;;;;134.97;73.77;;;;;;;6.88;100.00;99145.69;2117153;28;20181;-76
2021/10/12 00:04:49;;;;;;;128.52;72.65;;;;;;;6.84;100.00;99151.78;2116596;28;20250;-75
2021/10/12 00:05:52;;;;;;;133.20;72.03;;;;;;;6.76;100.00;99156.56;2109179;28;20201;-75
2021/10/12 00:07:01;;;;;;;135.18;71.63;;;;;;;6.73;100.00;99153.66;2116225;28;20620;-75
2021/10/12 00:08:03;;;;;;;130.45;74.78;;;;;;;6.70;100.00;99155.00;2116537;27;20201;-75
2021/10/12 00:09:07;;;;;;;136.48;77.28;;;;;;;6.64;100.00;99152.63;2115568;28;20204;-76
2021/10/12 00:10:09;;;;;;;138.98;78.03;;;;;;;6.60;100.00;99155.00;2116850;28;20193;-75
2021/10/12 00:11:12;;;;;;;135.90;77.47;;;;;;;6.61;100.00;99153.97;2116690;28;20713;-75
2021/10/12 00:12:17;;;;;;;139.82;79.07;;;;;;;6.57;100.00;99154.75;2117106;28;20185;-76
2021/10/12 00:13:23;;;;;;;137.88;79.78;;;;;;;6.56;100.00;99159.25;2116737;28;20595;-75
2021/10/12 00:14:28;;;;;;;132.02;78.53;;;;;;;6.50;100.00;99152.34;2116734;27;20717;-75
2021/10/12 00:15:34;;;;;;;141.60;82.47;;;;;;;6.46;100.00;99161.91;2116293;28;20187;-75
2021/10/12 00:16:39;;;;;;;143.07;83.93;;;;;;;6.42;100.00;99163.50;2116918;28;20714;-76
2021/10/12 00:17:42;;;;;;;149.50;85.25;;;;;;;6.36;100.00;99153.97;2116169;28;20197;-76
2021/10/12 00:18:46;;;;;;;158.68;93.43;;;;;;;6.36;100.00;99157.41;2116225;28;20189;-75
2021/10/12 00:19:52;;;;;;;156.27;94.07;;;;;;;6.37;100.00;99158.22;2116827;28;20644;-76
2021/10/12 00:20:59;;;;;;;166.35;96.20;;;;;;;6.32;100.00;99152.91;2116740;28;20204;-76
2021/10/12 00:22:02;;;;;;;155.68;92.40;;;;;;;6.29;100.00;99158.75;2117068;28;20169;-76
2021/10/12 00:23:06;;;;;;;154.00;92.72;;;;;;;6.24;100.00;99160.31;2116631;28;20216;-76
2021/10/12 00:24:11;;;;;;;166.73;95.72;;;;;;;6.20;100.00;99164.56;2116435;27;20197;-76
2021/10/12 00:25:12;;;;;;;151.90;95.57;;;;;;;6.22;100.00;99159.00;2116194;28;20185;-76
2021/10/12 00:26:20;;;;;;;158.10;97.45;;;;;;;6.18;100.00;99153.44;2116668;28;20193;-76
2021/10/12 00:27:25;;;;;;;173.73;98.20;;;;;;;6.13;100.00;99160.59;2116247;27;20204;-76
2021/10/12 00:28:31;;;;;;;171.30;100.93;;;;;;;6.11;100.00;99166.16;2116049;28;20227;-76
2021/10/12 00:29:38;;;;;;;164.48;100.85;;;;;;;6.15;100.00;99153.97;2116905;28;20225;-76
2021/10/12 00:30:40;;;;;;;170.85;98.40;;;;;;;6.11;100.00;99152.91;2116997;28;20173;-76
2021/10/12 00:31:43;;;;;;;170.15;99.13;;;;;;;6.15;100.00;99164.56;2116352;27;20223;-76
2021/10/12 00:32:46;;;;;;;174.85;97.30;;;;;;;6.19;100.00;99159.53;2116302;27;20197;-76
2021/10/12 00:33:52;;;;;;;172.68;99.38;;;;;;;6.19;100.00;99165.63;2116280;28;20181;-76
2021/10/12 00:34:59;;;;;;;174.20;100.28;;;;;;;6.16;100.00;99160.84;2115951;28;20239;-76
2021/10/12 00:36:04;;;;;;;167.30;98.60;;;;;;;6.15;100.00;99161.91;2116296;28;20196;-76
2021/10/12 00:37:08;;;;;;;172.68;100.25;;;;;;;6.18;100.00;99157.94;2116677;28;20189;-76
2021/10/12 00:38:10;;;;;;;162.20;94.38;;;;;;;6.18;100.00;99164.03;2116210;28;20232;-76
2021/10/12 00:39:14;;;;;;;178.52;99.95;;;;;;;6.17;100.00;99157.16;2107771;28;20190;-76
2021/10/12 00:40:16;;;;;;;164.05;98.05;;;;;;;6.19;100.00;99159.53;2107843;28;20205;-76
2021/10/12 00:41:23;;;;;;;170.95;96.57;;;;;;;6.28;100.00;99160.59;2116250;28;20188;-76
2021/10/12 00:42:26;;;;;;;168.93;97.30;;;;;;;6.23;100.00;99164.03;2116624;28;20279;-76
2021/10/12 00:43:32;;;;;;;167.50;96.72;;;;;;;6.22;100.00;99170.38;2116574;27;20276;-76
2021/10/12 00:44:37;;;;;;;170.32;97.00;;;;;;;6.20;100.00;99156.63;2115955;28;20208;-76
2021/10/12 00:45:41;;;;;;;166.00;94.55;;;;;;;6.17;100.00;99157.16;2116138;28;20189;-76
2021/10/12 00:46:47;;;;;;;169.45;99.35;;;;;;;6.19;100.00;99156.88;2116232;28;20200;-76
2021/10/12 00:47:58;;;;;;;169.13;96.75;;;;;;;6.16;100.00;99152.88;2107964;28;20217;-75
2021/10/12 00:49:01;;;;;;;163.43;97.88;;;;;;;6.18;100.00;99161.41;2116127;28;20297;-76
2021/10/12 00:50:03;;;;;;;166.65;97.38;;;;;;;6.15;100.00;99167.19;2116602;28;20552;-76
2021/10/12 00:51:12;;;;;;;167.15;97.35;;;;;;;6.12;100.00;99157.16;2116750;28;20170;-76
2021/10/12 00:52:14;;;;;;;165.65;99.63;;;;;;;6.11;100.00;99152.91;2116580;28;20161;-76
2021/10/12 00:53:16;;;;;;;163.75;101.32;;;;;;;6.16;100.00;99152.09;2116134;27;20197;-76
2021/10/12 00:54:21;;;;;;;163.55;99.78;;;;;;;6.18;100.00;99152.66;2115945;28;20181;-76
2021/10/12 00:55:26;;;;;;;164.10;97.25;;;;;;;6.15;100.00;99148.66;2116376;28;20295;-76
2021/10/12 00:56:29;;;;;;;174.25;98.53;;;;;;;6.10;100.00;99145.22;2116521;28;20197;-76
2021/10/12 00:57:32;;;;;;;170.57;99.00;;;;;;;6.10;100.00;99146.03;2115692;28;20201;-75
2021/10/12 00:58:38;;;;;;;169.73;97.95;;;;;;;6.08;100.00;99153.44;2107781;28;20220;-75
2021/10/12 00:59:40;;;;;;;164.63;95.93;;;;;;;6.10;100.00;99150.53;2108115;28;20285;-75
2021/10/12 01:00:44;;;;;;;168.15;99.40;;;;;;;6.07;100.00;99146.53;2107589;28;20201;-76
2021/10/12 01:01:46;;;;;;;169.75;97.95;;;;;;;6.07;100.00;99140.44;2116211;28;20691;-76
2021/10/12 01:02:53;;;;;;;160.73;93.03;;;;;;;6.05;100.00;99148.66;2116366;28;20192;-76
2021/10/12 01:03:59;;;;;;;173.00;99.43;;;;;;;6.04;100.00;99144.41;2116400;28;20193;-76
2021/10/12 01:05:03;;;;;;;176.48;101.82;;;;;;;6.05;100.00;99148.66;2116558;28;20260;-76
2021/10/12 01:06:09;;;;;;;169.13;97.63;;;;;;;6.07;100.00;99145.75;2116346;28;20246;-76
2021/10/12 01:07:13;;;;;;;167.98;100.00;;;;;;;6.07;100.00;99141.22;2116266;27;20720;-76
2021/10/12 01:08:16;;;;;;;172.18;102.13;;;;;;;6.06;100.00;99147.59;2115171;28;20275;-76
2021/10/12 01:09:22;;;;;;;172.40;103.18;;;;;;;6.06;100.00;99142.28;2115781;28;20208;-76
2021/10/12 01:10:26;;;;;;;182.10;104.82;;;;;;;6.03;100.00;99142.84;2115839;28;20545;-76
2021/10/12 01:11:32;;;;;;;176.45;102.68;;;;;;;6.02;100.00;99138.59;2116225;28;20695;-76
2021/10/12 01:12:35;;;;;;;167.48;98.00;;;;;;;6.01;100.00;99141.53;2116419;28;20276;-76
2021/10/12 01:13:41;;;;;;;185.05;102.93;;;;;;;6.02;100.00;99143.09;2116248;28;20230;-76
2021/10/12 01:14:43;;;;;;;172.10;100.05;;;;;;;6.02;100.00;99143.91;2116422;28;20726;-76
2021/10/12 01:15:47;;;;;;;176.75;99.55;;;;;;;6.00;100.00;99142.56;2115635;28;20598;-76
2021/10/12 01:16:54;;;;;;;186.05;104.40;;;;;;;5.99;100.00;99144.41;2115810;28;20200;-76
2021/10/12 01:17:59;;;;;;;175.98;104.70;;;;;;;6.00;100.00;99146.03;2116182;28;20287;-76
2021/10/12 01:19:05;;;;;;;191.52;106.45;;;;;;;6.01;100.00;99144.16;2115722;28;20221;-76
2021/10/12 01:20:14;;;;;;;185.65;103.38;;;;;;;5.99;100.00;99143.59;2116328;28;20199;-76
2021/10/12 01:21:16;;;;;;;185.80;105.13;;;;;;;5.99;100.00;99139.09;2116314;28;20535;-76
2021/10/12 01:22:18;;;;;;;180.43;105.78;;;;;;;6.06;100.00;99144.16;2115578;28;20773;-76
2021/10/12 01:23:23;;;;;;;185.82;106.72;;;;;;;6.05;100.00;99140.72;2115972;28;20568;-76
2021/10/12 01:24:31;;;;;;;186.85;102.05;;;;;;;6.05;100.00;99140.72;2116248;28;20192;-76
2021/10/12 01:25:35;;;;;;;184.18;104.70;;;;;;;6.02;100.00;99129.88;2116358;28;20170;-76
2021/10/12 01:26:43;;;;;;;191.43;107.65;;;;;;;6.04;100.00;99133.03;2116277;28;20193;-76
2021/10/12 01:27:46;;;;;;;190.48;106.68;;;;;;;6.04;100.00;99135.69;2115481;28;20238;-76
2021/10/12 01:28:49;;;;;;;189.95;107.20;;;;;;;6.03;100.00;99134.88;2115708;28;20242;-75
2021/10/12 01:29:52;;;;;;;199.73;108.85;;;;;;;6.05;100.00;99131.97;2116244;28;20719;-76
2021/10/12 01:30:59;;;;;;;184.27;105.15;;;;;;;6.04;100.00;99136.47;2116300;28;20181;-76
2021/10/12 01:32:01;;;;;;;191.50;103.65;;;;;;;6.07;100.00;99135.94;2116235;28;20196;-76
2021/10/12 01:33:08;;;;;;;178.13;105.18;;;;;;;6.11;100.00;99141.53;2115912;27;20644;-76
2021/10/12 01:34:12;;;;;;;194.98;108.70;;;;;;;6.08;100.00;99132.25;2115830;28;20181;-76
2021/10/12 01:35:19;;;;;;;188.80;104.47;;;;;;;6.08;100.00;99140.19;2115621;27;20539;-76
2021/10/12 01:36:22;;;;;;;195.38;107.95;;;;;;;6.09;100.00;99139.13;2115695;28;20683;-76
2021/10/12 01:37:32;;;;;;;196.13;105.47;;;;;;;6.10;100.00;99126.69;2116348;28;20676;-76
2021/10/12 01:38:37;;;;;;;194.00;107.22;;;;;;;6.10;100.00;99134.63;2116294;27;20180;-76
2021/10/12 01:39:44;;;;;;;197.23;108.00;;;;;;;6.08;100.00;99126.97;2115765;27;20629;-76
2021/10/12 01:40:47;;;;;;;198.73;110.47;;;;;;;6.11;100.00;99125.63;2115633;28;20189;-76
2021/10/12 01:41:50;;;;;;;203.82;109.75;;;;;;;6.09;100.00;99128.53;2115446;28;20203;-76
2021/10/12 01:42:56;;;;;;;200.90;113.50;;;;;;;6.10;100.00;99132.78;2107402;28;20672;-76
2021/10/12 01:43:59;;;;;;;204.05;110.32;;;;;;;6.15;100.00;99122.16;2107963;28;20201;-76
2021/10/12 01:45:03;;;;;;;201.27;107.20;;;;;;;6.13;100.00;99116.34;2107309;28;20285;-76
2021/10/12 01:46:06;;;;;;;202.07;109.88;;;;;;;6.11;100.00;99113.19;2107368;28;20201;-76
2021/10/12 01:47:12;;;;;;;201.30;109.15;;;;;;;6.15;100.00;99119.50;2115575;28;20177;-76
2021/10/12 01:48:15;;;;;;;196.10;104.05;;;;;;;6.15;100.00;99116.06;2115978;27;20200;-76
2021/10/12 01:49:20;;;;;;;192.85;104.22;;;;;;;6.14;100.00;99123.22;2107085;28;20608;-76
2021/10/12 01:50:23;;;;;;;197.27;105.05;;;;;;;6.15;100.00;99124.81;2107987;28;20201;-76
2021/10/12 01:51:26;;;;;;;191.95;104.28;;;;;;;6.17;100.00;99124.56;2107099;28;20189;-76
2021/10/12 01:52:29;;;;;;;206.80;106.97;;;;;;;6.27;100.00;99123.78;2115691;28;20276;-76
2021/10/12 01:53:35;;;;;;;191.13;105.65;;;;;;;6.29;100.00;99126.94;2116078;28;20197;-76
2021/10/12 01:54:40;;;;;;;213.77;106.50;;;;;;;6.27;100.00;99121.13;2116004;28;20563;-76
2021/10/12 01:55:46;;;;;;;200.65;106.18;;;;;;;6.26;100.00;99122.19;2116118;28;20205;-76
2021/10/12 01:56:48;;;;;;;202.63;105.80;;;;;;;6.23;100.00;99123.50;2115367;28;20193;-76
2021/10/12 01:57:51;;;;;;;193.75;105.30;;;;;;;6.23;100.00;99119.00;2115398;28;20257;-76
2021/10/12 01:58:55;;;;;;;193.20;106.13;;;;;;;6.27;100.00;99118.47;2115767;28;20197;-76
2021/10/12 01:59:58;;;;;;;193.75;102.40;;;;;;;6.26;100.00;99120.34;2107627;28;20233;-76
2021/10/12 02:01:01;;;;;;;193.10;103.32;;;;;;;6.29;100.00;99116.34;2107512;28;20702;-76
2021/10/12 02:02:05;;;;;;;196.73;104.32;;;;;;;6.29;100.00;99116.34;2115352;28;20192;-76
2021/10/12 02:03:10;;;;;;;195.23;104.80;;;;;;;6.29;100.00;99108.41;2115585;27;20663;-76
2021/10/12 02:04:14;;;;;;;190.73;103.65;;;;;;;6.26;100.00;99104.44;2115482;28;20188;-76
2021/10/12 02:05:19;;;;;;;190.27;102.75;;;;;;;6.31;100.00;99112.38;2115327;28;20203;-76
2021/10/12 02:06:20;;;;;;;192.05;103.35;;;;;;;6.31;100.00;99108.91;2107288;28;20238;-77
2021/10/12 02:07:28;;;;;;;199.07;104.67;;;;;;;6.30;100.00;99108.13;2115590;28;20655;-76
2021/10/12 02:08:32;;;;;;;198.95;105.78;;;;;;;6.29;100.00;99097.81;2115915;28;20800;-76
2021/10/12 02:09:38;;;;;;;198.00;105.03;;;;;;;6.30;100.00;99104.69;2116037;28;20192;-77
2021/10/12 02:10:44;;;;;;;185.13;101.95;;;;;;;6.30;100.00;99104.69;2115460;27;20215;-77
2021/10/12 02:11:48;;;;;;;186.93;101.05;;;;;;;6.29;100.00;99095.16;2115300;28;20619;-76
2021/10/12 02:12:50;;;;;;;187.38;98.72;;;;;;;6.30;100.00;99099.38;2115603;27;20243;-76
2021/10/12 02:13:53;;;;;;;180.47;96.13;;;;;;;6.30;100.00;99094.09;2106792;28;20201;-76
2021/10/12 02:14:56;;;;;;;186.30;97.50;;;;;;;6.32;100.00;99094.59;2115579;28;20227;-76
2021/10/12 02:16:01;;;;;;;188.98;99.05;;;;;;;6.30;100.00;99092.22;2115180;28;20632;-77
2021/10/12 02:17:02;;;;;;;195.48;96.47;;;;;;;6.32;100.00;99098.06;2115087;28;20205;-76
2021/10/12 02:18:07;;;;;;;187.05;95.75;;;;;;;6.31;100.00;99096.47;2115206;28;20246;-76
2021/10/12 02:19:09;;;;;;;182.50;95.47;;;;;;;6.35;100.00;99094.88;2114835;28;20260;-76
2021/10/12 02:20:14;;;;;;;180.38;93.63;;;;;;;6.37;100.00;99097.25;2115257;28;20185;-76
2021/10/12 02:21:15;;;;;;;181.95;93.30;;;;;;;6.36;100.00;99088.53;2115881;28;20184;-76
2021/10/12 02:22:21;;;;;;;178.90;92.10;;;;;;;6.36;100.00;99100.97;2115140;28;20232;-76
2021/10/12 02:23:27;;;;;;;179.48;94.68;;;;;;;6.37;100.00;99098.06;2115281;28;20192;-76
2021/10/12 02:24:33;;;;;;;181.85;92.75;;;;;;;6.37;100.00;99094.63;2115989;28;20208;-77
2021/10/12 02:25:40;;;;;;;179.18;89.75;;;;;;;6.35;100.00;99094.09;2115769;28;20205;-76
2021/10/12 02:26:42;;;;;;;173.88;89.93;;;;;;;6.35;100.00;99088.78;2115531;28;20204;-76
2021/10/12 02:27:44;;;;;;;172.05;91.00;;;;;;;6.33;100.00;99091.69;2106870;28;20189;-77
2021/10/12 02:28:46;;;;;;;172.55;88.55;;;;;;;6.34;100.00;99088.00;2106782;28;20227;-77
2021/10/12 02:29:49;;;;;;;167.57;88.40;;;;;;;6.36;100.00;99090.38;2115212;28;20197;-77
2021/10/12 02:30:56;;;;;;;178.23;88.88;;;;;;;6.36;100.00;99082.44;2115394;27;20251;-76
2021/10/12 02:32:01;;;;;;;162.50;84.80;;;;;;;6.37;100.00;99084.03;2115441;28;20213;-77
2021/10/12 02:33:02;;;;;;;170.48;89.25;;;;;;;6.39;100.00;99089.84;2115927;28;20280;-76
2021/10/12 02:34:05;;;;;;;163.88;88.00;;;;;;;6.36;100.00;99085.09;2115190;28;20332;-77
2021/10/12 02:35:08;;;;;;;165.95;87.07;;;;;;;6.36;100.00;99080.56;2115978;28;20193;-76
2021/10/12 02:36:13;;;;;;;161.77;82.93;;;;;;;6.39;100.00;99079.25;2115797;28;20628;-76
2021/10/12 02:37:17;;;;;;;158.32;83.97;;;;;;;6.41;100.00;99082.41;2115356;28;20225;-76
2021/10/12 02:38:23;;;;;;;157.38;84.05;;;;;;;6.40;100.00;99083.47;2115090;28;20658;-76
2021/10/12 02:39:31;;;;;;;158.82;83.70;;;;;;;6.38;100.00;99088.25;2115663;28;20264;-76
2021/10/12 02:40:35;;;;;;;160.77;83.10;;;;;;;6.38;100.00;99083.75;2115646;28;20233;-77
2021/10/12 02:41:38;;;;;;;161.38;81.13;;;;;;;6.38;100.00;99085.59;2116002;28;20272;-76
2021/10/12 02:42:39;;;;;;;145.82;79.45;;;;;;;6.42;100.00;99084.00;2115737;28;20185;-76
2021/10/12 02:43:46;;;;;;;154.17;83.00;;;;;;;6.41;100.00;99093.00;2115009;28;20189;-76
2021/10/12 02:44:47;;;;;;;161.02;79.78;;;;;;;6.46;100.00;99088.50;2107299;28;20455;-76
2021/10/12 02:45:55;;;;;;;152.60;80.85;;;;;;;6.53;100.00;99095.38;2115135;28;20753;-76
2021/10/12 02:47:00;;;;;;;147.35;78.90;;;;;;;6.51;100.00;99098.28;2115701;28;20237;-76
2021/10/12 02:48:04;;;;;;;150.68;79.63;;;;;;;6.47;100.00;99098.03;2115754;28;20600;-76
2021/10/12 02:49:08;;;;;;;138.35;75.65;;;;;;;6.48;100.00;99102.28;2115668;28;20586;-76
2021/10/12 02:50:11;;;;;;;139.23;75.90;;;;;;;6.48;100.00;99094.31;2114862;28;20651;-76
2021/10/12 02:51:17;;;;;;;149.75;76.90;;;;;;;6.50;100.00;99099.34;2106641;28;20204;-76
2021/10/12 02:52:23;;;;;;;139.77;75.95;;;;;;;6.50;100.00;99100.13;2107455;28;20223;-77
2021/10/12 02:53:27;;;;;;;132.50;71.10;;;;;;;6.47;100.00;99092.75;2115019;28;20196;-76
2021/10/12 02:54:36;;;;;;;130.82;72.15;;;;;;;6.51;100.00;99091.16;2115583;28;20228;-77
2021/10/12 02:55:41;;;;;;;127.45;71.00;;;;;;;6.50;100.00;99102.78;2115490;28;20280;-76
2021/10/12 02:56:43;;;;;;;129.00;70.82;;;;;;;6.55;100.00;99104.66;2115646;28;20185;-76
2021/10/12 02:57:46;;;;;;;126.63;70.85;;;;;;;6.59;100.00;99104.91;2115318;28;20193;-76
2021/10/12 02:58:49;;;;;;;122.35;68.97;;;;;;;6.60;100.00;99099.31;2115009;28;20661;-76
2021/10/12 02:59:55;;;;;;;127.63;69.72;;;;;;;6.59;100.00;99095.09;2115047;27;20204;-77
2021/10/12 03:00:59;;;;;;;123.80;67.15;;;;;;;6.60;100.00;99096.69;2114781;28;20223;-77
2021/10/12 03:02:01;;;;;;;120.72;65.18;;;;;;;6.60;100.00;99099.31;2106945;28;20289;-76
2021/10/12 03:03:04;;;;;;;116.43;65.93;;;;;;;6.57;100.00;99096.44;2114907;28;20189;-76
2021/10/12 03:04:06;;;;;;;114.07;63.90;;;;;;;6.57;100.00;99105.16;2115575;28;20188;-76
2021/10/12 03:05:10;;;;;;;121.07;67.20;;;;;;;6.57;100.00;99099.88;2114839;28;20193;-76
2021/10/12 03:06:13;;;;;;;113.47;64.45;;;;;;;6.60;100.00;99095.88;2114354;28;20225;-76
2021/10/12 03:07:17;;;;;;;116.40;65.28;;;;;;;6.64;100.00;99100.38;2106557;28;20655;-76
2021/10/12 03:08:20;;;;;;;114.10;63.45;;;;;;;6.63;100.00;99096.16;2106888;28;20212;-76
2021/10/12 03:09:26;;;;;;;117.35;61.45;;;;;;;6.60;100.00;99104.63;2107240;28;20193;-76
2021/10/12 03:10:31;;;;;;;113.35;63.35;;;;;;;6.60;100.00;99099.31;2114641;28;20207;-76
2021/10/12 03:11:33;;;;;;;115.43;63.78;;;;;;;6.60;100.00;99094.03;2114840;28;20706;-76
2021/10/12 03:12:37;;;;;;;117.82;62.47;;;;;;;6.58;100.00;99093.50;2114529;28;20631;-77
2021/10/12 03:13:45;;;;;;;112.10;64.03;;;;;;;6.60;100.00;99096.69;2106845;28;20197;-76
2021/10/12 03:14:46;;;;;;;112.30;62.25;;;;;;;6.60;100.00;99090.59;2114824;28;20245;-76
2021/10/12 03:15:51;;;;;;;106.72;61.75;;;;;;;6.61;100.00;99094.84;2114683;28;20674;-76
2021/10/12 03:16:58;;;;;;;112.82;61.55;;;;;;;6.61;100.00;99093.00;2114868;28;20196;-76
2021/10/12 03:18:01;;;;;;;105.38;61.17;;;;;;;6.58;100.00;99088.19;2114694;28;20196;-77
2021/10/12 03:19:05;;;;;;;104.57;59.97;;;;;;;6.58;100.00;99092.72;2114872;28;20200;-77
2021/10/12 03:20:10;;;;;;;103.95;59.20;;;;;;;6.59;100.00;99078.41;2115069;28;20663;-77
2021/10/12 03:21:15;;;;;;;106.70;59.30;;;;;;;6.63;100.00;99084.75;2114794;28;20192;-76
2021/10/12 03:22:17;;;;;;;107.97;59.40;;;;;;;6.56;100.00;99079.72;2115124;28;20205;-77
2021/10/12 03:23:23;;;;;;;97.60;57.35;;;;;;;6.59;100.00;99084.50;2106444;28;20193;-77
2021/10/12 03:24:26;;;;;;;96.40;56.88;;;;;;;6.63;100.00;99090.84;2114905;28;20193;-77
2021/10/12 03:25:34;;;;;;;96.47;55.17;;;;;;;6.63;100.00;99080.25;2115170;28;20230;-77
2021/10/12 03:26:36;;;;;;;95.60;57.20;;;;;;;6.59;100.00;99075.75;2115172;28;20169;-77
2021/10/12 03:27:42;;;;;;;92.35;56.08;;;;;;;6.60;100.00;99072.81;2115545;28;20181;-77
2021/10/12 03:28:47;;;;;;;94.05;56.35;;;;;;;6.57;100.00;99076.00;2115535;28;20193;-77
2021/10/12 03:29:52;;;;;;;94.72;54.28;;;;;;;6.53;100.00;99077.63;2114908;28;20197;-77
2021/10/12 03:30:59;;;;;;;90.07;55.03;;;;;;;6.50;100.00;99078.94;2106389;28;20540;-77
2021/10/12 03:32:02;;;;;;;86.05;53.40;;;;;;;6.47;100.00;99079.50;2114773;28;20257;-77
2021/10/12 03:33:05;;;;;;;89.32;52.15;;;;;;;6.50;100.00;99078.16;2115032;28;20189;-77
2021/10/12 03:34:09;;;;;;;78.95;51.42;;;;;;;6.49;100.00;99081.88;2114833;28;20589;-77
2021/10/12 03:35:15;;;;;;;75.70;47.15;;;;;;;6.50;100.00;99081.59;2114991;28;20702;-77
2021/10/12 03:36:19;;;;;;;83.22;48.78;;;;;;;6.48;100.00;99074.97;2114704;28;20600;-78
2021/10/12 03:37:23;;;;;;;79.75;50.17;;;;;;;6.46;100.00;99091.16;2114356;28;20690;-78
2021/10/12 03:38:29;;;;;;;80.68;49.88;;;;;;;6.47;100.00;99070.75;2114845;28;20192;-78
2021/10/12 03:39:31;;;;;;;84.60;49.88;;;;;;;6.47;100.00;99063.59;2115401;28;20189;-79
2021/10/12 03:40:35;;;;;;;84.68;50.40;;;;;;;6.49;100.00;99068.59;2114637;28;20224;-79
2021/10/12 03:41:39;;;;;;;85.97;51.75;;;;;;;6.49;100.00;99073.91;2114819;28;20280;-79
2021/10/12 03:42:45;;;;;;;82.43;49.25;;;;;;;6.50;100.00;99065.69;2114743;28;20560;-78
2021/10/12 03:43:47;;;;;;;81.38;48.78;;;;;;;6.46;100.00;99072.59;2115607;28;20246;-78
2021/10/12 03:44:56;;;;;;;86.35;51.28;;;;;;;6.49;100.00;99064.09;2115301;28;20188;-79
2021/10/12 03:46:01;;;;;;;90.85;50.03;;;;;;;6.46;100.00;99069.94;2115632;28;20184;-79
2021/10/12 03:47:04;;;;;;;86.10;50.70;;;;;;;6.44;100.00;99071.28;2114662;28;20189;-78
2021/10/12 03:48:06;;;;;;;84.63;49.65;;;;;;;6.50;100.00;99070.19;2106865;28;20757;-78
2021/10/12 03:49:13;;;;;;;86.13;51.50;;;;;;;6.47;100.00;99068.09;2114783;28;20188;-78
2021/10/12 03:50:17;;;;;;;84.82;49.70;;;;;;;6.41;100.00;99059.34;2115496;28;20599;-78
2021/10/12 03:51:25;;;;;;;93.35;51.47;;;;;;;6.40;100.00;99064.91;2114890;28;20246;-78
2021/10/12 03:52:27;;;;;;;90.82;53.13;;;;;;;6.37;100.00;99068.91;2107484;28;20240;-78
2021/10/12 03:53:31;;;;;;;88.72;52.67;;;;;;;6.36;100.00;99071.84;2114708;28;20224;-78
2021/10/12 03:54:34;;;;;;;92.47;54.63;;;;;;;6.31;100.00;99064.66;2115306;28;20202;-78
2021/10/12 03:55:38;;;;;;;95.57;55.58;;;;;;;6.35;100.00;99072.91;2114960;28;20197;-78
2021/10/12 03:56:46;;;;;;;97.07;55.63;;;;;;;6.33;100.00;99072.34;2114652;28;20213;-78
2021/10/12 03:57:47;;;;;;;93.38;54.30;;;;;;;6.31;100.00;99074.47;2115322;28;20209;-78
2021/10/12 03:58:53;;;;;;;94.07;52.35;;;;;;;6.26;100.00;99062.03;2115350;28;20272;-78
2021/10/12 03:59:57;;;;;;;92.18;53.63;;;;;;;6.23;100.00;99066.00;2114798;28;20192;-78
2021/10/12 04:01:01;;;;;;;96.45;53.92;;;;;;;6.21;100.00;99062.84;2114846;28;20230;-78
2021/10/12 04:02:02;;;;;;;100.43;53.40;;;;;;;6.21;100.00;99062.03;2114934;28;20200;-78
2021/10/12 04:03:06;;;;;;;93.80;54.78;;;;;;;6.17;100.00;99066.31;2114588;28;20192;-78
2021/10/12 04:04:08;;;;;;;101.03;56.13;;;;;;;6.14;100.00;99057.00;2106451;28;20250;-78
2021/10/12 04:05:13;;;;;;;99.47;56.85;;;;;;;6.11;100.00;99054.13;2114563;28;20220;-78
2021/10/12 04:06:17;;;;;;;99.65;55.92;;;;;;;6.07;100.00;99059.13;2115224;28;20565;-78
2021/10/12 04:07:23;;;;;;;104.25;56.03;;;;;;;6.07;100.00;99055.69;2115152;28;20213;-78
2021/10/12 04:08:25;;;;;;;109.38;55.90;;;;;;;6.04;100.00;99054.38;2114874;28;20205;-79
2021/10/12 04:09:30;;;;;;;100.65;57.92;;;;;;;6.05;100.00;99055.97;2114968;28;20201;-78
2021/10/12 04:10:37;;;;;;;102.25;56.65;;;;;;;6.05;100.00;99048.00;2114370;28;20197;-78
2021/10/12 04:11:46;;;;;;;102.93;57.60;;;;;;;6.05;100.00;99047.22;2114545;28;20239;-78
2021/10/12 04:12:49;;;;;;;96.35;55.22;;;;;;;6.05;100.00;99040.06;2114781;28;20197;-78
2021/10/12 04:13:56;;;;;;;106.70;59.42;;;;;;;6.04;100.00;99050.94;2107312;28;20205;-78
2021/10/12 04:15:01;;;;;;;101.78;56.97;;;;;;;6.01;100.00;99052.28;2114664;28;20196;-79
2021/10/12 04:16:02;;;;;;;103.95;57.40;;;;;;;6.01;100.00;99052.28;2115052;28;20189;-78
2021/10/12 04:17:04;;;;;;;103.20;56.42;;;;;;;6.02;100.00;99047.75;2114903;28;20201;-79
2021/10/12 04:18:10;;;;;;;105.78;56.80;;;;;;;6.01;100.00;99046.19;2114670;28;20181;-78
2021/10/12 04:19:13;;;;;;;99.57;55.33;;;;;;;5.98;100.00;99050.13;2114829;28;20199;-78
2021/10/12 04:20:23;;;;;;;99.93;56.42;;;;;;;6.01;100.00;99048.81;2106781;28;20240;-78
2021/10/12 04:21:28;;;;;;;102.43;55.70;;;;;;;5.98;100.00;99042.19;2114939;28;20234;-78
2021/10/12 04:22:30;;;;;;;103.47;55.90;;;;;;;6.01;100.00;99049.63;2114899;28;20197;-78
2021/10/12 04:23:35;;;;;;;97.18;56.75;;;;;;;6.02;100.00;99048.56;2114655;28;20182;-78
2021/10/12 04:24:38;;;;;;;91.45;54.45;;;;;;;6.05;100.00;99041.94;2114853;28;20212;-78
2021/10/12 04:25:47;;;;;;;100.93;55.22;;;;;;;6.01;100.00;99043.53;2114663;28;20195;-78
2021/10/12 04:26:52;;;;;;;90.55;52.00;;;;;;;5.97;100.00;99037.94;2115145;28;20197;-78
2021/10/12 04:27:59;;;;;;;92.70;54.03;;;;;;;6.00;100.00;99034.00;2115411;28;20166;-78
2021/10/12 04:29:01;;;;;;;98.40;53.17;;;;;;;5.98;100.00;99036.88;2115385;28;20192;-78
2021/10/12 04:30:09;;;;;;;91.55;51.90;;;;;;;5.96;100.00;99033.72;2115161;28;20189;-78
2021/10/12 04:31:11;;;;;;;95.70;52.30;;;;;;;5.92;100.00;99022.88;2114028;28;20288;-78
2021/10/12 04:32:14;;;;;;;87.32;50.95;;;;;;;5.94;100.00;99028.69;2114766;28;20185;-78
2021/10/12 04:33:19;;;;;;;87.30;49.10;;;;;;;5.99;100.00;99033.19;2115182;28;20196;-78
2021/10/12 04:34:23;;;;;;;83.43;48.85;;;;;;;6.01;100.00;99028.44;2114722;28;20595;-78
2021/10/12 04:35:28;;;;;;;83.85;49.67;;;;;;;5.99;100.00;99033.19;2114567;28;20193;-78
2021/10/12 04:36:31;;;;;;;87.47;49.63;;;;;;;5.95;100.00;99024.97;2115252;28;20668;-78
2021/10/12 04:37:36;;;;;;;85.45;49.92;;;;;;;5.90;100.00;99014.38;2114729;28;20200;-78
2021/10/12 04:38:37;;;;;;;88.63;50.15;;;;;;;5.88;100.00;99023.63;2114487;28;20606;-77
2021/10/12 04:39:41;;;;;;;84.33;47.93;;;;;;;5.86;100.00;99031.06;2106040;28;20194;-78
2021/10/12 04:40:46;;;;;;;84.57;50.85;;;;;;;5.86;100.00;99020.47;2106945;28;20527;-78
2021/10/12 04:41:49;;;;;;;87.78;50.67;;;;;;;5.86;100.00;99017.81;2106553;28;20209;-77
2021/10/12 04:42:55;;;;;;;85.28;49.72;;;;;;;5.85;100.00;99026.81;2107478;28;20284;-78
2021/10/12 04:43:59;;;;;;;85.97;50.30;;;;;;;5.83;100.00;99023.66;2115833;28;20204;-78
2021/10/12 04:45:01;;;;;;;83.40;49.13;;;;;;;5.85;100.00;99032.13;2108006;28;20197;-78
2021/10/12 04:46:06;;;;;;;88.60;48.67;;;;;;;5.83;100.00;99029.75;2116205;28;20264;-77
2021/10/12 04:47:09;;;;;;;90.30;48.03;;;;;;;5.83;100.00;99023.66;2116875;28;20616;-77
2021/10/12 04:48:12;;;;;;;87.15;49.90;;;;;;;5.84;100.00;99019.94;2116310;27;20353;-78
2021/10/12 04:49:15;;;;;;;79.95;47.58;;;;;;;5.84;100.00;99023.38;2107995;28;20234;-78
2021/10/12 04:50:18;;;;;;;86.63;47.92;;;;;;;5.88;100.00;99020.97;2115940;28;20697;-78
2021/10/12 04:51:23;;;;;;;91.85;50.60;;;;;;;5.93;100.00;99023.66;2116273;27;20245;-78
2021/10/12 04:52:29;;;;;;;89.18;50.33;;;;;;;5.94;100.00;99019.97;2108608;28;20201;-78